Date,TemperatureHighF,TemperatureAvgF,TemperatureLowF,DewpointHighF,DewpointAvgF,DewpointLowF,HumidityHigh,HumidityAvg,HumidityLow,PressureMaxIn,PressureMinIn,WindSpeedMaxMPH,WindSpeedAvgMPH,GustSpeedMaxMPH,PrecipitationSumIn
2013-2-1,35,29,23,22,15,8,73,55,43,30.15,29.70,14,6,25,0.00
2013-2-2,30,25,19,28,14,5,98,64,38,30.34,30.14,11,4,20,0.00
2013-2-3,35,27,20,32,26,20,100,93,85,30.16,29.74,8,1,17,0.06
2013-2-4,33,26,23,24,17,9,98,71,46,30.04,29.76,12,6,22,0.04
2013-2-5,31,25,23,27,20,12,100,82,62,30.13,30.01,8,2,16,0.00
2013-2-6,39,32,27,35,27,18,90,83,68,30.36,29.98,9,2,15,0.01
2013-2-7,29,25,20,28,18,9,100,74,50,30.62,30.36,8,2,16,0.00
2013-2-8,35,31,28,33,29,27,99,93,81,30.58,29.42,19,10,40,0.34
2013-2-9,31,20,19,30,18,16,95,91,88,30.15,29.42,16,7,35,0.00
2013-2-10,30,23,16,28,22,16,100,97,80,30.48,30.15,10,3,20,0.00
2013-2-11,47,34,16,42,29,16,100,84,68,30.46,29.69,15,4,26,0.40
2013-2-12,43,37,32,38,32,24,91,83,63,29.97,29.68,11,5,20,0.00
2013-2-13,41,33,26,34,28,24,98,84,57,29.96,29.75,7,2,12,0.00
2013-2-14,42,33,27,36,28,25,98,83,63,30.13,29.77,5,0,12,0.24
2013-2-15,48,38,29,43,33,25,90,83,65,30.14,30.03,12,3,20,0.00
2013-2-16,43,36,27,39,31,24,88,83,64,30.04,29.71,10,2,20,0.00
2013-2-17,34,24,17,30,20,9,100,86,69,29.72,29.34,15,8,29,0.00
2013-2-18,31,23,16,14,11,6,88,61,41,30.24,29.69,14,9,28,0.01
2013-2-19,47,37,24,39,28,12,92,72,50,30.25,29.68,17,6,26,0.92
2013-2-20,44,34,26,33,24,14,88,68,55,29.87,29.62,12,6,22,0.04
2013-2-21,35,28,25,33,20,14,98,73,52,30.14,29.86,13,6,22,0.00
2013-2-22,38,34,32,33,30,26,98,86,66,30.45,30.14,11,2,23,0.00
2013-2-23,40,35,27,37,31,25,97,87,66,30.42,29.98,11,5,17,0.19
2013-2-24,43,38,33,35,30,25,76,72,69,29.98,29.64,10,5,21,1.64
2013-2-25,42,33,24,35,27,22,98,79,57,30.33,29.90,8,2,18,0.08
2013-2-26,44,33,22,34,28,18,93,80,51,30.42,30.23,10,3,14,0.00
2013-2-27,44,41,39,34,29,26,82,62,55,30.23,29.65,18,10,29,0.52
2013-2-28,41,38,34,30,25,20,67,59,47,29.74,29.58,9,1,14,0.00